createdAt,value
2022-10-13T00:00:12.812Z,10.2
2022-10-13T00:02:14.841Z,10.1
2022-10-13T00:04:16.853Z,10
2022-10-13T00:08:24.128Z,10.2
2022-10-13T00:12:28.161Z,10
2022-10-13T00:13:30.814Z,10.1
2022-10-13T00:15:32.829Z,10.1
2022-10-13T00:17:34.836Z,10
2022-10-13T00:21:42.131Z,10.1
2022-10-13T00:23:44.147Z,10.1
2022-10-13T00:25:46.155Z,9.9
2022-10-13T00:27:48.185Z,10
2022-10-13T00:29:50.221Z,10.3
2022-10-13T00:31:52.252Z,10.2
2022-10-13T00:33:54.265Z,10.2
2022-10-13T00:35:59.410Z,10.2
2022-10-13T00:38:01.436Z,10.3
2022-10-13T00:44:07.439Z,10.4
2022-10-13T00:48:11.488Z,10.2
2022-10-13T00:50:16.743Z,10.2
2022-10-13T00:52:19.065Z,10.2
2022-10-13T00:54:20.826Z,10
2022-10-13T00:56:22.825Z,10
2022-10-13T01:00:26.795Z,10.2
2022-10-13T01:04:33.949Z,10.3
2022-10-13T01:06:35.959Z,10
2022-10-13T01:08:37.920Z,9.9
2022-10-13T01:09:40.531Z,10.1
2022-10-13T01:11:42.546Z,10.4
2022-10-13T01:13:44.576Z,10.3
2022-10-13T01:15:46.507Z,10.3
2022-10-13T01:17:51.680Z,10.5
2022-10-13T01:19:53.621Z,10.7
2022-10-13T01:21:55.650Z,10.6
2022-10-13T01:25:59.616Z,10.7
2022-10-13T01:28:01.525Z,10.9
2022-10-13T01:34:10.624Z,11.4
2022-10-13T01:36:12.661Z,11.4
2022-10-13T01:38:14.693Z,11.7
2022-10-13T01:40:16.627Z,11.7
2022-10-13T01:42:18.979Z,11.6
2022-10-13T01:44:20.466Z,11.6
2022-10-13T01:46:25.531Z,11.5
2022-10-13T01:48:27.556Z,11.5
2022-10-13T01:50:29.486Z,11.5
2022-10-13T01:52:31.394Z,11.7
2022-10-13T01:54:33.299Z,11.5
2022-10-13T01:56:35.203Z,11.6
2022-10-13T01:58:37.249Z,11.5
2022-10-13T02:00:42.447Z,11.8
2022-10-13T02:02:44.319Z,11.8
2022-10-13T02:04:46.258Z,11.8
2022-10-13T02:07:14.974Z,12.1
2022-10-13T02:09:16.899Z,11.7
2022-10-13T02:11:18.823Z,12.1
2022-10-13T02:13:23.877Z,11.7
2022-10-13T02:15:25.899Z,12
2022-10-13T02:17:27.823Z,11.8
2022-10-13T02:19:29.866Z,12.1
2022-10-13T02:21:31.798Z,11.9
2022-10-13T02:23:33.758Z,12
2022-10-13T02:25:35.653Z,11.8
2022-10-13T02:27:40.681Z,11.8
2022-10-13T02:29:42.621Z,12
2022-10-13T02:31:44.648Z,11.9
2022-10-13T02:33:46.562Z,12.1
2022-10-13T02:35:48.520Z,12
2022-10-13T02:37:50.419Z,11.9
2022-10-13T02:39:52.360Z,11.9
2022-10-13T02:41:57.440Z,12
2022-10-13T02:43:59.373Z,12
2022-10-13T02:46:01.294Z,12
2022-10-13T02:48:03.202Z,12
2022-10-13T02:50:05.160Z,12.2
2022-10-13T02:52:07.092Z,12.1
2022-10-13T02:54:09.094Z,11.9
2022-10-13T02:56:14.138Z,12.2
2022-10-13T02:58:16.073Z,12.2
2022-10-13T03:00:18.000Z,12.1
2022-10-13T03:01:20.517Z,12.4
2022-10-13T03:03:22.438Z,12.1
2022-10-13T03:05:24.373Z,12.3
2022-10-13T03:07:26.309Z,11.9
2022-10-13T03:09:31.328Z,12.1
2022-10-13T03:11:33.244Z,11.8
2022-10-13T03:13:35.160Z,12.1
2022-10-13T03:15:37.100Z,12.2
2022-10-13T03:17:39.113Z,12.2
2022-10-13T03:23:48.049Z,12.1
2022-10-13T03:27:51.884Z,12.3
2022-10-13T03:29:53.821Z,12.3
2022-10-13T03:40:06.579Z,12.2
2022-10-13T03:42:08.488Z,12.3
2022-10-13T03:44:10.414Z,12.3
2022-10-13T03:50:16.161Z,12.2
2022-10-13T03:52:21.538Z,12.3
2022-10-13T03:54:23.121Z,12.2
2022-10-13T03:56:25.026Z,12.3
2022-10-13T03:57:27.566Z,12.2
2022-10-13T03:59:34.157Z,12.1
2022-10-13T04:01:31.477Z,12.3
2022-10-13T04:03:33.342Z,12.2
2022-10-13T04:05:38.400Z,12.3
2022-10-13T04:07:40.342Z,12.2
2022-10-13T04:13:46.092Z,12.3
2022-10-13T04:15:47.960Z,12.4
2022-10-13T04:17:49.872Z,12.4
2022-10-13T04:21:56.849Z,12.3
2022-10-13T04:23:58.752Z,12.2
2022-10-13T04:26:00.667Z,12.3
2022-10-13T04:28:02.608Z,12.2
2022-10-13T04:30:04.508Z,12.2
2022-10-13T04:32:06.431Z,12.3
2022-10-13T04:34:11.503Z,12.3
2022-10-13T04:36:13.394Z,12.3
2022-10-13T04:38:15.336Z,12.3
2022-10-13T04:40:17.208Z,12.4
2022-10-13T04:42:19.518Z,12
2022-10-13T04:48:28.034Z,12.3
2022-10-13T04:50:29.934Z,12.3
2022-10-13T04:52:31.871Z,12.3
2022-10-13T04:53:34.403Z,12.2
2022-10-13T04:55:36.319Z,12.3
2022-10-13T04:57:38.240Z,12.2
2022-10-13T04:59:41.738Z,12.4
2022-10-13T05:01:46.741Z,12
2022-10-13T05:03:48.639Z,12.3
2022-10-13T05:05:50.568Z,11.9
2022-10-13T05:09:54.411Z,12.2
2022-10-13T05:11:56.304Z,12.3
2022-10-13T05:20:07.216Z,12
2022-10-13T05:22:09.156Z,12.2
2022-10-13T05:26:12.964Z,12.2
2022-10-13T05:28:14.969Z,12
2022-10-13T05:30:19.953Z,12.1
2022-10-13T05:32:22.272Z,12.2
2022-10-13T05:34:23.798Z,12.3
2022-10-13T05:36:25.692Z,11.9
2022-10-13T05:38:27.613Z,12
2022-10-13T05:40:29.545Z,12.2
2022-10-13T05:42:31.478Z,12.2
2022-10-13T05:44:36.492Z,12.2
2022-10-13T05:46:38.407Z,12.3
2022-10-13T05:48:40.325Z,12.3
2022-10-13T05:51:08.925Z,12.2
2022-10-13T05:53:10.829Z,12.4
2022-10-13T05:55:12.735Z,12.3
2022-10-13T05:57:17.807Z,12.3
2022-10-13T05:59:23.368Z,12.3
2022-10-13T06:01:21.653Z,12.6
2022-10-13T06:03:23.583Z,12.3
2022-10-13T06:05:25.486Z,12.5
2022-10-13T06:07:27.391Z,12.3
2022-10-13T06:09:29.305Z,12.3
2022-10-13T06:11:34.362Z,12.5
2022-10-13T06:13:36.305Z,12.6
2022-10-13T06:15:38.230Z,12.5
2022-10-13T06:17:40.160Z,12.4
2022-10-13T06:19:42.076Z,12.5
2022-10-13T06:21:43.993Z,12.4
2022-10-13T06:23:45.899Z,12.3
2022-10-13T06:25:50.962Z,12.3
2022-10-13T06:27:52.861Z,12.2
2022-10-13T06:29:54.785Z,12.5
2022-10-13T06:31:56.717Z,12.4
2022-10-13T06:33:58.608Z,12.5
2022-10-13T06:36:00.534Z,12.5
2022-10-13T06:38:02.449Z,12.4
2022-10-13T06:42:09.425Z,12.4
2022-10-13T06:44:11.356Z,12.7
2022-10-13T06:45:13.907Z,12.7
2022-10-13T06:47:15.867Z,12.5
2022-10-13T06:49:17.754Z,12.2
2022-10-13T06:51:19.680Z,12.3
2022-10-13T06:53:24.744Z,12.6
2022-10-13T06:55:26.665Z,12.4
2022-10-13T06:57:28.581Z,12.6
2022-10-13T06:59:30.542Z,12.6
2022-10-13T07:01:32.434Z,12.4
2022-10-13T07:03:34.388Z,12.6
2022-10-13T07:05:36.281Z,12.6
2022-10-13T07:07:41.326Z,12.6
2022-10-13T07:09:43.271Z,12.5
2022-10-13T07:11:45.191Z,12.6
2022-10-13T07:13:47.427Z,12.7
2022-10-13T07:15:49.031Z,12.6
2022-10-13T07:19:57.152Z,12.7
2022-10-13T07:21:57.917Z,12.7
2022-10-13T07:23:59.808Z,12.7
2022-10-13T07:26:01.736Z,12.6
2022-10-13T07:28:03.664Z,12.6
2022-10-13T07:30:05.579Z,12.6
2022-10-13T07:32:07.501Z,12.8
2022-10-13T07:34:09.409Z,12.9
2022-10-13T07:36:14.443Z,12.8
2022-10-13T07:38:16.397Z,13.2
2022-10-13T07:40:18.282Z,13.1
2022-10-13T07:47:26.585Z,13
2022-10-13T07:49:31.635Z,12.9
2022-10-13T07:55:37.378Z,12.8
2022-10-13T07:57:39.292Z,13.1
2022-10-13T07:59:41.219Z,12.8
2022-10-13T08:03:50.643Z,12.9
2022-10-13T08:05:50.129Z,13
2022-10-13T08:07:54.701Z,13.1
2022-10-13T08:13:57.762Z,12.8
2022-10-13T08:15:59.683Z,12.9
2022-10-13T08:20:06.656Z,12.9
2022-10-13T08:22:09.835Z,13
2022-10-13T08:26:12.398Z,12.9
2022-10-13T08:28:14.426Z,12.8
2022-10-13T08:30:16.311Z,12.8
2022-10-13T08:32:21.561Z,13.2
2022-10-13T08:34:23.223Z,12.9
2022-10-13T08:36:25.140Z,12.9
2022-10-13T08:37:28.276Z,12.9
2022-10-13T08:39:29.579Z,12.9
2022-10-13T08:41:31.503Z,13
2022-10-13T08:43:33.405Z,12.8
2022-10-13T08:47:40.395Z,12.9
2022-10-13T08:49:42.328Z,12.9
2022-10-13T08:51:44.259Z,12.8
2022-10-13T08:53:46.189Z,12.6
2022-10-13T08:55:48.114Z,12.8
2022-10-13T08:57:50.004Z,12.8
2022-10-13T08:59:55.051Z,12.9
2022-10-13T09:01:57.056Z,12.9
2022-10-13T09:03:58.904Z,13
2022-10-13T09:06:00.865Z,12.9
2022-10-13T09:08:02.769Z,12.9
2022-10-13T09:10:04.701Z,13
2022-10-13T09:12:06.577Z,13.1
2022-10-13T09:14:11.602Z,13
2022-10-13T09:16:13.530Z,13
2022-10-13T09:18:15.464Z,13.1
2022-10-13T09:20:17.384Z,13.2
2022-10-13T09:22:19.604Z,13
2022-10-13T09:24:21.222Z,13.2
2022-10-13T09:26:23.148Z,13.2
2022-10-13T09:28:28.220Z,13.3
2022-10-13T09:30:30.099Z,13.3
2022-10-13T09:32:32.029Z,13.4
2022-10-13T09:35:00.547Z,13.5
2022-10-13T09:37:02.478Z,13.5
2022-10-13T09:39:04.408Z,13.6
2022-10-13T09:41:09.464Z,13.8
2022-10-13T09:43:11.368Z,13.8
2022-10-13T09:45:13.287Z,14.2
2022-10-13T09:47:15.209Z,13.9
2022-10-13T09:49:17.132Z,13.9
2022-10-13T09:51:19.068Z,14.4
2022-10-13T09:53:20.980Z,14.6
2022-10-13T09:55:31.313Z,14.4
2022-10-13T09:57:27.918Z,14.7
2022-10-13T09:59:29.846Z,14.8
2022-10-13T10:01:31.729Z,14.8
2022-10-13T10:03:33.800Z,14.6
2022-10-13T10:05:35.576Z,14.7
2022-10-13T10:07:37.477Z,14.5
2022-10-13T10:09:42.663Z,14.3
2022-10-13T10:11:44.449Z,14.2
2022-10-13T10:13:46.387Z,14.6
2022-10-13T10:15:48.287Z,14.5
2022-10-13T10:17:50.169Z,14.5
2022-10-13T10:19:52.226Z,14.5
2022-10-13T10:21:54.010Z,14.5
2022-10-13T10:23:59.040Z,14.6
2022-10-13T10:26:00.986Z,14.5
2022-10-13T10:28:02.862Z,14.4
2022-10-13T10:29:05.399Z,14.3
2022-10-13T10:31:07.309Z,14.5
2022-10-13T10:33:09.217Z,14.4
2022-10-13T10:35:11.127Z,14.4
2022-10-13T10:37:19.890Z,14.4
2022-10-13T10:39:18.070Z,14.5
2022-10-13T10:41:19.968Z,14.3
2022-10-13T10:43:21.875Z,14.6
2022-10-13T10:45:23.789Z,14.5
2022-10-13T10:47:26.097Z,14.6
2022-10-13T10:49:27.591Z,14.6
2022-10-13T10:51:34.226Z,14.6
2022-10-13T10:53:36.076Z,14.6
2022-10-13T10:55:37.977Z,14.9
2022-10-13T10:57:39.891Z,14.7
2022-10-13T10:59:41.782Z,14.7
2022-10-13T11:01:43.744Z,15
2022-10-13T11:03:45.593Z,15
2022-10-13T11:05:50.769Z,15.1
2022-10-13T11:07:52.543Z,15.2
2022-10-13T11:09:54.437Z,15.1
2022-10-13T11:11:56.356Z,15.2
2022-10-13T11:13:58.245Z,15.3
2022-10-13T11:16:00.158Z,14.5
2022-10-13T11:18:02.070Z,15.4
2022-10-13T11:20:07.117Z,15.7
2022-10-13T11:22:09.015Z,15.4
2022-10-13T11:24:10.893Z,15.3
2022-10-13T11:25:13.414Z,15.4
2022-10-13T11:27:15.320Z,15.4
2022-10-13T11:29:17.233Z,15.8
2022-10-13T11:31:19.101Z,15.6
2022-10-13T11:33:24.169Z,16.1
2022-10-13T11:43:33.651Z,15.4
2022-10-13T11:47:40.588Z,15.8
2022-10-13T11:55:48.395Z,15.5
2022-10-13T11:57:50.081Z,15.3
2022-10-13T12:01:57.022Z,15.4
2022-10-13T12:03:58.923Z,14.9
2022-10-13T12:06:00.818Z,14.8
2022-10-13T12:08:02.701Z,14.8
2022-10-13T12:10:04.629Z,14.7
2022-10-13T12:12:06.674Z,14.8
2022-10-13T12:14:08.456Z,14.8
2022-10-13T12:16:13.485Z,14.7
2022-10-13T12:18:15.386Z,14.7
2022-10-13T12:20:17.269Z,14.8
2022-10-13T12:21:19.782Z,14.5
2022-10-13T12:29:36.287Z,14.8
2022-10-13T12:31:32.461Z,14.6
2022-10-13T12:33:34.364Z,14.8
2022-10-13T12:35:36.299Z,14.4
2022-10-13T12:37:38.168Z,14
2022-10-13T12:39:40.101Z,14.6
2022-10-13T12:41:41.973Z,14.2
2022-10-13T12:43:47.031Z,14.4
2022-10-13T12:45:48.932Z,14.1
2022-10-13T12:47:50.844Z,14.2
2022-10-13T12:49:52.735Z,14.1
2022-10-13T12:51:54.652Z,14.2
2022-10-13T12:53:56.555Z,14.1
2022-10-13T12:55:58.476Z,14.4
2022-10-13T12:58:03.487Z,14.2
2022-10-13T13:00:05.620Z,14.3
2022-10-13T13:02:07.299Z,14
2022-10-13T13:04:09.186Z,14.3
2022-10-13T13:06:11.096Z,14.2
2022-10-13T13:08:12.998Z,13.9
2022-10-13T13:12:20.079Z,14.1
2022-10-13T13:14:21.831Z,14.2
2022-10-13T13:16:23.755Z,14.1
2022-10-13T13:18:52.338Z,13.8
2022-10-13T13:20:54.239Z,13.8
2022-10-13T13:22:56.138Z,13.8
2022-10-13T13:25:01.186Z,13.6
2022-10-13T13:27:03.104Z,13.7
2022-10-13T13:29:04.980Z,13.5
2022-10-13T13:31:06.926Z,13.6
2022-10-13T13:33:08.891Z,13.7
2022-10-13T13:35:10.741Z,13.6
2022-10-13T13:37:12.648Z,13.4
2022-10-13T13:39:17.677Z,13.2
2022-10-13T13:41:19.604Z,13.3
2022-10-13T13:43:21.489Z,13.4
2022-10-13T13:47:25.299Z,13.3
2022-10-13T13:49:27.232Z,13.2
2022-10-13T13:51:29.160Z,13.3
2022-10-13T13:59:39.892Z,13.1
2022-10-13T14:01:41.868Z,13
2022-10-13T14:07:50.674Z,12.7
2022-10-13T14:09:53.776Z,13.1
2022-10-13T14:11:54.488Z,13
2022-10-13T14:14:58.959Z,13
2022-10-13T14:17:00.847Z,13.2
2022-10-13T14:19:02.749Z,13.1
2022-10-13T14:21:07.776Z,13.2
2022-10-13T14:23:09.691Z,13.2
2022-10-13T14:25:11.572Z,13.3
2022-10-13T14:33:19.294Z,13.5
2022-10-13T14:35:24.302Z,13.5
2022-10-13T14:37:31.887Z,13.3
2022-10-13T14:39:28.124Z,13.5
2022-10-13T14:41:30.034Z,13
2022-10-13T14:43:31.943Z,13.4
2022-10-13T14:45:33.855Z,13.3
2022-10-13T14:47:35.758Z,13.5
2022-10-13T14:49:40.815Z,13.5
2022-10-13T14:51:42.708Z,13.5
2022-10-13T14:53:44.641Z,13.3
2022-10-13T14:55:46.525Z,13.6
2022-10-13T14:57:48.453Z,13.4
2022-10-13T14:59:50.362Z,13.6
2022-10-13T15:01:52.263Z,13.7
2022-10-13T15:03:57.322Z,13.8
2022-10-13T15:05:59.191Z,14
2022-10-13T15:08:01.108Z,13.8
2022-10-13T15:09:03.680Z,14.1
2022-10-13T15:11:05.536Z,14
2022-10-13T15:13:07.468Z,14
2022-10-13T15:15:09.368Z,13.9
2022-10-13T15:17:14.414Z,14.2
2022-10-13T15:19:16.326Z,14
2022-10-13T15:21:18.224Z,14
2022-10-13T15:23:20.149Z,14
2022-10-13T15:25:22.058Z,13.9
2022-10-13T15:27:23.995Z,14
2022-10-13T15:29:25.904Z,14.1
2022-10-13T15:31:30.954Z,13.8
2022-10-13T15:33:32.847Z,13.6
2022-10-13T15:35:34.763Z,13.9
2022-10-13T15:39:38.599Z,13.6
2022-10-13T15:41:40.496Z,13.8
2022-10-13T15:43:42.421Z,13.8
2022-10-13T15:45:47.461Z,13.9
2022-10-13T15:47:49.367Z,13.6
2022-10-13T15:49:51.264Z,13.7
2022-10-13T15:51:53.182Z,13.6
2022-10-13T15:53:55.111Z,13.4
2022-10-13T15:55:57.012Z,13.6
2022-10-13T15:57:58.944Z,13.7
2022-10-13T16:00:03.983Z,13.5
2022-10-13T16:02:05.872Z,13.4
2022-10-13T16:04:07.793Z,13.6
2022-10-13T16:05:10.313Z,13.3
2022-10-13T16:07:12.199Z,13.4
2022-10-13T16:09:14.137Z,13.6
2022-10-13T16:11:16.040Z,13.6
2022-10-13T16:13:18.934Z,13.6
2022-10-13T16:15:20.829Z,13.4
2022-10-13T16:17:22.764Z,13.6
2022-10-13T16:19:24.672Z,13.5
2022-10-13T16:21:26.572Z,13.4
2022-10-13T16:23:28.469Z,13.6
2022-10-13T16:25:30.385Z,13.5
2022-10-13T16:27:35.427Z,13.6
2022-10-13T16:29:37.379Z,13.8
2022-10-13T16:31:39.260Z,13.5
2022-10-13T16:33:41.173Z,13.5
2022-10-13T16:35:43.083Z,13.5
2022-10-13T16:37:44.982Z,13.6
2022-10-13T16:39:51.422Z,13.2
2022-10-13T16:41:53.482Z,13.2
2022-10-13T16:43:55.347Z,13.3
2022-10-13T16:45:59.975Z,13.4
2022-10-13T16:47:59.195Z,13.5
2022-10-13T16:50:01.274Z,13.4
2022-10-13T16:52:03.010Z,13.3
2022-10-13T16:54:04.933Z,13.5
2022-10-13T16:56:10.003Z,13.3
2022-10-13T16:58:11.907Z,13.3
2022-10-13T17:00:13.854Z,13.4
2022-10-13T17:02:42.356Z,13.2
2022-10-13T17:04:44.265Z,13.3
2022-10-13T17:06:46.178Z,13.1
2022-10-13T17:08:51.228Z,13.1
2022-10-13T17:10:58.083Z,13.1
2022-10-13T17:12:55.081Z,13.2
2022-10-13T17:14:56.987Z,13.3
2022-10-13T17:16:58.892Z,13.3
2022-10-13T17:19:00.799Z,13.2
2022-10-13T17:21:02.715Z,13.3
2022-10-13T17:23:07.748Z,13.2
2022-10-13T17:25:09.664Z,13.3
2022-10-13T17:27:11.564Z,13.2
2022-10-13T17:29:13.457Z,13.4
2022-10-13T17:35:19.212Z,13.3
2022-10-13T17:41:28.044Z,13.4
2022-10-13T17:43:29.960Z,13.2
2022-10-13T17:45:31.872Z,13.3
2022-10-13T17:47:33.787Z,13.2
2022-10-13T17:51:40.773Z,13.3
2022-10-13T17:53:42.684Z,13.2
2022-10-13T17:58:49.016Z,13.1
2022-10-13T18:01:11.863Z,13.1
2022-10-13T18:04:57.873Z,13.3
2022-10-13T18:06:59.779Z,13.4
2022-10-13T18:09:01.713Z,13.3
2022-10-13T18:11:08.085Z,13.1
2022-10-13T18:13:05.486Z,12.9
2022-10-13T18:15:07.398Z,12.8
2022-10-13T18:17:09.290Z,12.9
2022-10-13T18:19:14.355Z,13.3
2022-10-13T18:21:16.239Z,13.1
2022-10-13T18:23:18.152Z,13.1
2022-10-13T18:25:20.110Z,13.3
2022-10-13T18:29:23.895Z,13.1
2022-10-13T18:33:30.868Z,13.1
2022-10-13T18:35:32.790Z,12.9
2022-10-13T18:37:34.705Z,13.5
2022-10-13T18:39:36.630Z,13.1
2022-10-13T18:41:38.538Z,13.3
2022-10-13T18:43:40.455Z,13.2
2022-10-13T18:45:42.338Z,13.2
2022-10-13T18:47:47.389Z,13.2
2022-10-13T18:49:49.283Z,13.1
2022-10-13T18:51:51.192Z,13.3
2022-10-13T18:54:55.620Z,13.1
2022-10-13T18:56:57.760Z,13.4
2022-10-13T18:58:59.961Z,13
2022-10-13T19:01:04.556Z,13.5
2022-10-13T19:03:06.404Z,13.2
2022-10-13T19:05:08.292Z,13.2
2022-10-13T19:07:10.222Z,13.2
2022-10-13T19:09:12.119Z,13.1
2022-10-13T19:11:14.044Z,13.4
2022-10-13T19:13:15.989Z,13.3
2022-10-13T19:15:21.004Z,13.3
2022-10-13T19:17:23.229Z,13.2
2022-10-13T19:19:24.813Z,13.4
2022-10-13T19:21:26.736Z,13.3
2022-10-13T19:23:28.674Z,13.3
2022-10-13T19:25:30.598Z,13.2
2022-10-13T19:27:32.525Z,13.3
2022-10-13T19:29:37.568Z,13.1
2022-10-13T19:31:39.496Z,13.1
2022-10-13T19:33:44.572Z,13.4
2022-10-13T19:35:43.315Z,13.4
2022-10-13T19:37:45.243Z,13.2
2022-10-13T19:39:47.121Z,13
2022-10-13T19:41:49.035Z,13.4
2022-10-13T19:43:54.098Z,13.2
2022-10-13T19:45:59.575Z,13.4
2022-10-13T19:47:57.922Z,13.4
2022-10-13T19:49:00.450Z,13.4
2022-10-13T19:51:02.380Z,13.3
2022-10-13T19:53:04.287Z,13.3
2022-10-13T19:55:06.189Z,13.2
2022-10-13T19:57:11.235Z,13.2
2022-10-13T19:59:13.155Z,13.2
2022-10-13T20:01:15.092Z,13.4
2022-10-13T20:03:16.951Z,13.4
2022-10-13T20:05:23.239Z,13.1
2022-10-13T20:07:21.085Z,13.1
2022-10-13T20:09:22.719Z,13
2022-10-13T20:11:27.741Z,13
2022-10-13T20:13:29.658Z,13
2022-10-13T20:15:31.569Z,13.1
2022-10-13T20:17:33.522Z,13.1
2022-10-13T20:19:35.545Z,13.2
2022-10-13T20:21:37.335Z,13.1
2022-10-13T20:23:39.264Z,13
2022-10-13T20:25:44.302Z,13
2022-10-13T20:27:46.236Z,12.9
2022-10-13T20:29:48.146Z,13.1
2022-10-13T20:31:50.052Z,13.1
2022-10-13T20:33:51.981Z,12.8
2022-10-13T20:35:53.879Z,13.2
2022-10-13T20:37:55.788Z,13.1
2022-10-13T20:40:00.879Z,13
2022-10-13T20:42:02.763Z,12.9
2022-10-13T20:44:04.709Z,12.9
2022-10-13T20:48:57.725Z,13
2022-10-13T20:52:42.138Z,12.9
2022-10-13T20:54:44.065Z,12.7
2022-10-13T20:56:45.977Z,12.9
2022-10-13T21:00:49.848Z,12.9
2022-10-13T21:02:51.714Z,12.8
2022-10-13T21:04:53.653Z,12.9
2022-10-13T21:06:58.749Z,12.5
2022-10-13T21:09:00.629Z,12.9
2022-10-13T21:11:02.539Z,12.6
2022-10-13T21:17:08.262Z,12.8
2022-10-13T21:23:17.168Z,12.4
2022-10-13T21:25:19.067Z,12.5
2022-10-13T21:27:21.227Z,12.3
2022-10-13T21:29:22.908Z,12.3
2022-10-13T21:31:24.840Z,12.4
2022-10-13T21:35:31.807Z,12.3
2022-10-13T21:37:33.726Z,12.4
2022-10-13T21:39:35.667Z,12.5
2022-10-13T21:40:38.185Z,12.2
2022-10-13T21:42:40.097Z,12.2
2022-10-13T21:44:42.030Z,12.2
2022-10-13T21:46:43.926Z,12.2
2022-10-13T21:48:48.973Z,12.1
2022-10-13T21:50:50.890Z,12.2
2022-10-13T21:52:52.825Z,12.1
2022-10-13T21:54:54.741Z,11.9
2022-10-13T21:56:56.840Z,11.9
2022-10-13T21:58:58.591Z,11.8
2022-10-13T22:01:00.645Z,12
2022-10-13T22:03:05.572Z,11.8
2022-10-13T22:05:07.458Z,12
2022-10-13T22:07:09.389Z,11.9
2022-10-13T22:09:11.311Z,11.9
2022-10-13T22:11:13.226Z,11.7
2022-10-13T22:13:15.165Z,11.8
2022-10-13T22:15:17.064Z,11.7
2022-10-13T22:17:22.592Z,11.7
2022-10-13T22:19:24.014Z,11.6
2022-10-13T22:21:25.940Z,11.7
2022-10-13T22:23:27.950Z,11.4
2022-10-13T22:25:29.875Z,11.5
2022-10-13T22:27:31.789Z,11.7
2022-10-13T22:29:33.676Z,11.8
2022-10-13T22:31:38.735Z,11.6
2022-10-13T22:33:42.200Z,11.4
2022-10-13T22:35:44.092Z,11.6
2022-10-13T22:36:46.596Z,11.7
2022-10-13T22:38:48.507Z,11.5
2022-10-13T22:40:50.440Z,11.3
2022-10-13T22:42:52.325Z,11.4
2022-10-13T22:44:57.380Z,11.6
2022-10-13T22:46:59.274Z,11.4
2022-10-13T22:49:01.218Z,11.5
2022-10-13T22:51:03.099Z,11.3
2022-10-13T22:53:05.026Z,11.5
2022-10-13T22:57:08.965Z,11.5
2022-10-13T22:59:14.025Z,11.2
2022-10-13T23:01:15.930Z,11.3
2022-10-13T23:03:18.005Z,11.2
2022-10-13T23:05:19.861Z,11.1
2022-10-13T23:07:22.056Z,11.4
2022-10-13T23:09:23.692Z,11.3
2022-10-13T23:11:25.590Z,11.2
2022-10-13T23:13:30.644Z,11.2
2022-10-13T23:15:32.570Z,11.2
2022-10-13T23:17:34.484Z,11.2
2022-10-13T23:19:36.362Z,11
2022-10-13T23:21:38.278Z,11.2
2022-10-13T23:23:40.313Z,11
2022-10-13T23:25:42.245Z,11
2022-10-13T23:27:47.420Z,11
2022-10-13T23:29:49.307Z,11
2022-10-13T23:31:51.239Z,11.1
2022-10-13T23:32:53.758Z,11
2022-10-13T23:34:55.792Z,11.4
2022-10-13T23:36:57.783Z,11
2022-10-13T23:38:59.694Z,11.2
2022-10-13T23:41:04.942Z,11
2022-10-13T23:43:06.849Z,11
2022-10-13T23:45:08.862Z,11
2022-10-13T23:47:10.872Z,11.1
2022-10-13T23:49:12.795Z,10.9
2022-10-13T23:51:14.793Z,10.9
2022-10-13T23:55:21.730Z,10.9
2022-10-13T23:57:23.899Z,10.8
2022-10-13T23:59:25.678Z,10.6
